createdAt,value
2019-05-12T00:02:59.368Z,1.80
2019-05-12T00:08:03.784Z,2.20
2019-05-12T00:13:08.939Z,2.13
2019-05-12T00:18:14.153Z,2.47
2019-05-12T00:23:27.017Z,1.70
2019-05-12T00:28:28.228Z,1.77
2019-05-12T00:33:32.648Z,1.63
2019-05-12T00:38:38.156Z,1.90
2019-05-12T00:43:43.699Z,1.80
2019-05-12T00:48:50.831Z,2.00
2019-05-12T00:53:57.583Z,1.60
2019-05-12T00:59:02.211Z,1.50
2019-05-12T01:04:08.826Z,1.70
2019-05-12T01:09:14.153Z,1.67
2019-05-12T01:14:22.763Z,1.80
2019-05-12T01:19:29.712Z,1.60
2019-05-12T01:24:35.071Z,1.70
2019-05-12T01:29:40.371Z,1.60
2019-05-12T01:34:45.697Z,1.50
2019-05-12T01:39:50.494Z,1.60
2019-05-12T01:44:55.539Z,1.50
2019-05-12T01:50:00.945Z,1.67
2019-05-12T01:55:08.317Z,1.60
2019-05-12T02:00:13.735Z,1.50
2019-05-12T02:05:18.797Z,1.30
2019-05-12T02:10:25.043Z,1.20
2019-05-12T02:15:30.554Z,1.70
2019-05-12T02:20:37.853Z,1.40
2019-05-12T02:25:42.467Z,1.60
2019-05-12T02:30:50.257Z,1.60
2019-05-12T02:35:54.934Z,1.80
2019-05-12T02:41:00.224Z,1.90
2019-05-12T02:46:05.315Z,1.60
2019-05-12T02:51:11.668Z,1.40
2019-05-12T02:56:17.561Z,1.20
2019-05-12T03:01:24.398Z,1.17
2019-05-12T03:06:31.568Z,1.17
2019-05-12T03:11:37.502Z,0.97
2019-05-12T03:16:45.209Z,1.00
2019-05-12T03:21:49.289Z,1.03
2019-05-12T03:26:55.302Z,1.07
2019-05-12T03:32:00.597Z,1.20
2019-05-12T03:37:07.685Z,1.20
2019-05-12T03:42:14.531Z,1.27
2019-05-12T03:47:18.650Z,1.07
2019-05-12T03:52:24.653Z,0.90
2019-05-12T03:57:29.805Z,0.80
2019-05-12T04:02:35.276Z,1.00
2019-05-12T04:07:40.288Z,1.10
2019-05-12T04:12:45.290Z,1.13
2019-05-12T04:17:50.772Z,1.10
2019-05-12T04:22:55.569Z,1.20
2019-05-12T04:28:00.680Z,1.10
2019-05-12T04:33:06.009Z,1.23
2019-05-12T04:38:14.801Z,1.00
2019-05-12T04:43:19.167Z,1.10
2019-05-12T04:48:26.158Z,0.90
2019-05-12T04:53:31.639Z,1.00
2019-05-12T04:58:37.545Z,0.90
2019-05-12T05:03:44.262Z,0.80
2019-05-12T05:08:49.769Z,1.03
2019-05-12T05:13:55.034Z,1.00
2019-05-12T05:19:03.478Z,0.90
2019-05-12T05:24:09.539Z,1.30
2019-05-12T05:29:14.817Z,1.20
2019-05-12T05:34:23.582Z,1.00
2019-05-12T05:39:28.857Z,1.20
2019-05-12T05:44:37.854Z,1.03
2019-05-12T05:49:40.891Z,1.63
2019-05-12T05:54:46.815Z,0.93
2019-05-12T05:59:53.782Z,1.03
2019-05-12T06:04:59.422Z,1.17
2019-05-12T06:10:04.872Z,1.17
2019-05-12T06:15:10.024Z,1.20
2019-05-12T06:20:14.852Z,1.20
2019-05-12T06:25:19.802Z,1.10
2019-05-12T06:30:25.203Z,1.60
2019-05-12T06:35:30.856Z,0.93
2019-05-12T06:40:40.954Z,1.00
2019-05-12T06:45:46.711Z,0.90
2019-05-12T06:50:53.480Z,0.90
2019-05-12T06:56:00.123Z,0.80
2019-05-12T07:01:10.592Z,0.80
2019-05-12T07:06:18.002Z,0.80
2019-05-12T07:11:18.271Z,0.70
2019-05-12T07:16:29.782Z,0.60
2019-05-12T07:21:33.369Z,1.00
2019-05-12T07:26:37.639Z,0.73
2019-05-12T07:31:44.163Z,0.60
2019-05-12T07:36:53.350Z,0.63
2019-05-12T07:42:00.393Z,0.50
2019-05-12T07:47:10.435Z,0.53
2019-05-12T07:52:16.697Z,0.50
2019-05-12T07:57:21.492Z,0.60
2019-05-12T08:02:31.609Z,0.60
2019-05-12T08:07:34.456Z,0.55
2019-05-12T08:12:39.787Z,0.60
2019-05-12T08:17:49.247Z,0.90
2019-05-12T08:22:54.012Z,0.82
2019-05-12T08:28:10.945Z,1.10
2019-05-12T08:33:09.659Z,0.87
2019-05-12T08:38:11.242Z,0.65
2019-05-12T08:43:16.523Z,0.80
2019-05-12T08:48:24.802Z,1.00
2019-05-12T08:53:28.694Z,0.90
2019-05-12T08:58:46.919Z,1.77
2019-05-12T09:03:40.042Z,0.90
2019-05-12T09:08:49.236Z,0.68
2019-05-12T09:14:00.166Z,1.00
2019-05-12T09:18:59.339Z,0.60
2019-05-12T09:24:04.452Z,0.50
2019-05-12T09:29:09.333Z,0.88
2019-05-12T09:34:16.410Z,0.80
2019-05-12T09:39:23.357Z,0.85
2019-05-12T09:44:30.483Z,1.00
2019-05-12T09:49:39.205Z,0.80
2019-05-12T09:54:41.145Z,0.80
2019-05-12T09:59:55.557Z,0.93
2019-05-12T10:04:56.563Z,1.02
2019-05-12T10:09:59.667Z,0.93
2019-05-12T10:15:05.478Z,4.87
2019-05-12T10:20:13.545Z,1.07
2019-05-12T10:25:23.109Z,1.00
2019-05-12T10:30:25.719Z,0.70
2019-05-12T10:35:30.836Z,0.90
2019-05-12T10:40:36.235Z,0.98
2019-05-12T10:45:41.112Z,0.73
2019-05-12T10:50:46.083Z,0.80
2019-05-12T10:55:50.938Z,0.78
2019-05-12T11:00:58.826Z,0.60
2019-05-12T11:06:07.600Z,0.75
2019-05-12T11:11:10.077Z,0.80
2019-05-12T11:16:16.917Z,0.70
2019-05-12T11:21:22.085Z,0.65
2019-05-12T11:26:26.937Z,0.85
2019-05-12T11:31:33.477Z,0.62
2019-05-12T11:36:39.065Z,0.70
2019-05-12T11:41:45.510Z,0.82
2019-05-12T11:46:50.527Z,1.00
2019-05-12T11:51:56.038Z,0.60
2019-05-12T11:57:00.886Z,0.80
2019-05-12T12:02:05.782Z,0.60
2019-05-12T12:07:10.591Z,0.80
2019-05-12T12:12:16.187Z,0.70
2019-05-12T12:17:22.890Z,0.67
2019-05-12T12:22:29.884Z,0.72
2019-05-12T12:27:35.294Z,0.50
2019-05-12T12:32:40.203Z,0.70
2019-05-12T12:37:45.488Z,0.60
2019-05-12T12:42:50.299Z,0.60
2019-05-12T12:47:56.087Z,0.60
2019-05-12T12:53:00.915Z,0.75
2019-05-12T12:58:05.849Z,0.60
2019-05-12T13:03:11.071Z,0.60
2019-05-12T13:08:16.277Z,0.60
2019-05-12T13:13:21.571Z,0.70
2019-05-12T13:18:32.978Z,0.50
2019-05-12T13:23:39.997Z,0.80
2019-05-12T13:28:47.508Z,0.60
2019-05-12T13:33:49.458Z,0.80
2019-05-12T13:38:54.208Z,0.70
2019-05-12T13:44:00.091Z,0.50
2019-05-12T13:49:06.452Z,0.78
2019-05-12T13:54:11.226Z,1.02
2019-05-12T13:59:20.550Z,0.80
2019-05-12T14:04:27.668Z,1.30
2019-05-12T14:09:29.387Z,2.08
2019-05-12T14:14:34.900Z,0.90
2019-05-12T14:19:39.671Z,0.78
2019-05-12T14:24:46.851Z,1.00
2019-05-12T14:29:53.560Z,0.95
2019-05-12T14:35:00.707Z,1.07
2019-05-12T14:40:06.040Z,0.80
2019-05-12T14:45:13.514Z,0.73
2019-05-12T14:50:18.902Z,0.70
2019-05-12T14:55:25.235Z,0.93
2019-05-12T15:00:30.699Z,0.70
2019-05-12T15:05:35.443Z,1.07
2019-05-12T15:10:40.811Z,1.37
2019-05-12T15:15:50.131Z,1.10
2019-05-12T15:20:54.526Z,1.00
2019-05-12T15:25:59.374Z,1.02
2019-05-12T15:31:04.290Z,1.00
2019-05-12T15:36:09.867Z,0.90
2019-05-12T15:41:16.628Z,1.10
2019-05-12T15:46:21.360Z,1.05
2019-05-12T15:51:26.538Z,0.93
2019-05-12T15:56:31.355Z,1.00
2019-05-12T16:01:36.231Z,1.00
2019-05-12T16:06:45.069Z,1.10
2019-05-12T16:11:48.200Z,1.30
2019-05-12T16:16:53.961Z,0.90
2019-05-12T16:21:59.103Z,0.90
2019-05-12T16:27:04.452Z,1.33
2019-05-12T16:32:23.130Z,0.80
2019-05-12T16:37:16.302Z,0.90
2019-05-12T16:42:23.487Z,1.20
2019-05-12T16:47:29.339Z,1.07
2019-05-12T16:52:40.529Z,2.33
2019-05-12T16:57:50.042Z,1.10
2019-05-12T17:02:53.644Z,0.73
2019-05-12T17:07:55.806Z,0.90
2019-05-12T17:13:02.234Z,1.00
2019-05-12T17:18:07.098Z,0.90
2019-05-12T17:23:13.865Z,1.03
2019-05-12T17:28:18.594Z,0.90
2019-05-12T17:33:27.689Z,1.10
2019-05-12T17:38:34.092Z,0.87
2019-05-12T17:43:45.116Z,0.80
2019-05-12T17:48:45.487Z,0.87
2019-05-12T17:53:50.540Z,0.90
2019-05-12T17:58:55.395Z,1.07
2019-05-12T18:04:00.602Z,0.87
2019-05-12T18:09:09.436Z,0.83
2019-05-12T18:14:15.223Z,0.90
2019-05-12T18:19:20.383Z,0.70
2019-05-12T18:24:25.365Z,0.83
2019-05-12T18:29:30.893Z,0.73
2019-05-12T18:34:35.638Z,0.83
2019-05-12T18:39:43.475Z,0.90
2019-05-12T18:44:48.065Z,1.00
2019-05-12T18:49:53.860Z,0.90
2019-05-12T18:54:58.771Z,0.93
2019-05-12T19:00:07.165Z,0.97
2019-05-12T19:05:12.917Z,1.00
2019-05-12T19:10:17.815Z,0.90
2019-05-12T19:15:22.835Z,1.23
2019-05-12T19:20:31.349Z,1.00
2019-05-12T19:25:35.915Z,1.30
2019-05-12T19:30:43.592Z,1.20
2019-05-12T19:35:50.442Z,1.20
2019-05-12T19:41:00.692Z,1.30
2019-05-12T19:46:03.735Z,0.90
2019-05-12T19:51:20.745Z,1.10
2019-05-12T19:56:19.068Z,1.40
2019-05-12T20:01:32.334Z,1.47
2019-05-12T20:06:33.536Z,1.30
2019-05-12T20:11:40.286Z,1.60
2019-05-12T20:16:47.033Z,1.43
2019-05-12T20:21:54.176Z,1.57
2019-05-12T20:26:58.870Z,1.63
2019-05-12T20:32:04.894Z,1.73
2019-05-12T20:37:14.173Z,1.50
2019-05-12T20:42:17.154Z,1.63
2019-05-12T20:47:23.401Z,1.83
2019-05-12T20:52:28.731Z,1.90
2019-05-12T20:57:34.523Z,1.60
2019-05-12T21:02:40.038Z,1.60
2019-05-12T21:07:45.091Z,1.60
2019-05-12T21:12:50.343Z,1.67
2019-05-12T21:18:02.496Z,1.80
2019-05-12T21:23:01.638Z,1.70
2019-05-12T21:28:07.991Z,1.87
2019-05-12T21:33:14.768Z,2.20
2019-05-12T21:38:27.577Z,2.30
2019-05-12T21:43:26.388Z,1.90
2019-05-12T21:48:33.896Z,2.00
2019-05-12T21:53:37.979Z,2.17
2019-05-12T21:58:53.451Z,2.00
2019-05-12T22:03:57.818Z,1.93
2019-05-12T22:09:01.422Z,2.67
2019-05-12T22:14:08.879Z,2.50
2019-05-12T22:19:14.023Z,2.80
2019-05-12T22:24:18.864Z,2.70
2019-05-12T22:29:29.998Z,2.57
2019-05-12T22:34:37.350Z,2.43
2019-05-12T22:39:36.626Z,2.77
2019-05-12T22:44:43.648Z,2.70
2019-05-12T22:49:52.148Z,2.40
2019-05-12T22:54:54.765Z,2.60
2019-05-12T22:59:59.932Z,2.37
2019-05-12T23:05:05.197Z,2.60
2019-05-12T23:10:11.216Z,3.10
2019-05-12T23:15:17.221Z,2.90
2019-05-12T23:20:25.398Z,2.53
2019-05-12T23:25:29.333Z,3.10
2019-05-12T23:30:34.318Z,2.60
2019-05-12T23:35:39.754Z,2.67
2019-05-12T23:40:44.746Z,3.10
2019-05-12T23:45:50.047Z,2.90
2019-05-12T23:50:55.140Z,2.90
2019-05-12T23:55:59.904Z,2.93
